createdAt,value
2023-03-08T00:01:33.146Z,15.80
2023-03-08T00:04:01.612Z,17.80
2023-03-08T00:06:30.147Z,18.10
2023-03-08T00:09:02.557Z,19.60
2023-03-08T00:11:31.873Z,18.70
2023-03-08T00:14:02.061Z,18.30
2023-03-08T00:16:30.595Z,16.60
2023-03-08T00:18:59.682Z,18.90
2023-03-08T00:21:28.116Z,18.80
2023-03-08T00:23:56.486Z,17.90
2023-03-08T00:26:24.852Z,18.40
2023-03-08T00:28:53.211Z,18.50
2023-03-08T00:31:22.092Z,17.80
2023-03-08T00:33:55.041Z,18.20
2023-03-08T00:36:23.799Z,17.30
2023-03-08T00:38:52.777Z,14.30
2023-03-08T00:41:21.348Z,13.60
2023-03-08T00:43:50.647Z,15.10
2023-03-08T00:46:19.190Z,16.90
2023-03-08T00:48:47.660Z,18.40
2023-03-08T00:51:18.910Z,19.20
2023-03-08T00:53:49.034Z,20.40
2023-03-08T00:56:17.955Z,17.00
2023-03-08T00:58:46.829Z,17.40
2023-03-08T01:01:18.360Z,21.80
2023-03-08T01:03:49.041Z,22.90
2023-03-08T01:06:17.545Z,24.20
2023-03-08T01:08:46.569Z,24.10
2023-03-08T01:11:23.744Z,23.70
2023-03-08T01:13:53.012Z,23.60
2023-03-08T01:16:23.356Z,21.20
2023-03-08T01:18:52.848Z,19.30
2023-03-08T01:21:22.038Z,20.90
2023-03-08T01:23:50.938Z,18.80
2023-03-08T01:26:21.818Z,18.30
2023-03-08T01:28:50.537Z,18.10
2023-03-08T01:31:21.624Z,17.30
2023-03-08T01:33:50.597Z,16.80
2023-03-08T01:36:21.563Z,14.50
2023-03-08T01:38:50.438Z,14.80
2023-03-08T01:41:27.974Z,14.00
2023-03-08T01:43:56.880Z,13.10
2023-03-08T01:46:27.247Z,14.30
2023-03-08T01:49:18.425Z,15.00
2023-03-08T01:52:17.615Z,13.30
2023-03-08T01:54:56.057Z,13.00
2023-03-08T01:57:37.894Z,10.20
2023-03-08T02:00:16.868Z,10.20
2023-03-08T02:02:57.087Z,8.60
2023-03-08T02:05:27.508Z,7.40
2023-03-08T02:08:00.020Z,8.10
2023-03-08T02:10:31.566Z,6.70
2023-03-08T02:13:00.283Z,6.10
2023-03-08T02:15:28.941Z,12.60
2023-03-08T02:17:58.413Z,10.60
2023-03-08T02:20:36.335Z,11.50
2023-03-08T02:23:13.283Z,6.50
2023-03-08T02:25:55.412Z,4.90
2023-03-08T02:28:25.503Z,4.00
2023-03-08T02:30:55.676Z,5.00
2023-03-08T02:33:24.290Z,5.70
2023-03-08T02:35:52.949Z,5.30
2023-03-08T02:38:22.233Z,5.60
2023-03-08T02:40:53.913Z,5.30
2023-03-08T02:43:22.346Z,5.50
2023-03-08T02:45:51.193Z,5.70
2023-03-08T02:48:20.314Z,6.60
2023-03-08T02:50:48.747Z,5.20
2023-03-08T02:53:17.119Z,4.20
2023-03-08T02:55:46.355Z,4.70
2023-03-08T02:58:15.056Z,4.00
2023-03-08T03:00:43.365Z,6.30
2023-03-08T03:03:11.820Z,5.20
2023-03-08T03:05:44.270Z,5.80
2023-03-08T03:08:15.719Z,6.30
2023-03-08T03:10:44.208Z,7.70
2023-03-08T03:13:12.600Z,5.60
2023-03-08T03:15:41.055Z,5.30
2023-03-08T03:18:09.781Z,5.60
2023-03-08T03:20:38.387Z,5.40
2023-03-08T03:23:08.398Z,6.00
2023-03-08T03:25:43.951Z,5.30
2023-03-08T03:28:14.602Z,6.20
2023-03-08T03:30:43.297Z,6.20
2023-03-08T03:33:12.200Z,6.00
2023-03-08T03:35:40.541Z,6.00
2023-03-08T03:38:09.039Z,9.00
2023-03-08T03:40:37.848Z,11.60
2023-03-08T03:43:07.004Z,15.30
2023-03-08T03:45:35.424Z,17.50
2023-03-08T03:48:04.048Z,17.50
2023-03-08T03:50:32.562Z,15.60
2023-03-08T03:53:04.985Z,19.40
2023-03-08T03:55:33.453Z,21.00
2023-03-08T03:58:03.442Z,21.70
2023-03-08T04:00:32.629Z,23.40
2023-03-08T04:03:13.058Z,22.40
2023-03-08T04:05:41.523Z,25.70
2023-03-08T04:08:09.931Z,24.90
2023-03-08T04:10:39.601Z,26.80
2023-03-08T04:13:10.247Z,27.10
2023-03-08T04:15:38.835Z,26.50
2023-03-08T04:18:08.873Z,27.80
2023-03-08T04:20:38.528Z,26.40
2023-03-08T04:23:06.882Z,21.60
2023-03-08T04:25:39.297Z,22.90
2023-03-08T04:28:07.886Z,28.40
2023-03-08T04:30:36.230Z,29.90
2023-03-08T04:33:05.138Z,31.20
2023-03-08T04:35:39.901Z,32.40
2023-03-08T04:38:08.534Z,31.90
2023-03-08T04:40:56.900Z,32.10
2023-03-08T04:43:25.453Z,28.40
2023-03-08T04:45:53.905Z,28.60
2023-03-08T04:48:23.821Z,28.50
2023-03-08T04:50:56.022Z,28.50
2023-03-08T04:53:25.893Z,27.00
2023-03-08T04:55:55.031Z,26.20
2023-03-08T04:58:23.711Z,25.70
2023-03-08T05:00:52.209Z,26.00
2023-03-08T05:03:20.862Z,24.40
2023-03-08T05:05:51.979Z,21.70
2023-03-08T05:08:22.441Z,19.60
2023-03-08T05:11:00.492Z,19.20
2023-03-08T05:13:36.473Z,18.80
2023-03-08T05:16:07.208Z,21.60
2023-03-08T05:18:36.206Z,22.60
2023-03-08T05:21:11.535Z,23.70
2023-03-08T05:23:40.602Z,22.80
2023-03-08T05:26:11.100Z,20.30
2023-03-08T05:28:39.479Z,20.90
2023-03-08T05:31:14.396Z,20.60
2023-03-08T05:33:46.592Z,20.30
2023-03-08T05:36:16.344Z,21.30
2023-03-08T05:38:45.042Z,20.50
2023-03-08T05:41:15.839Z,21.50
2023-03-08T05:43:46.906Z,20.60
2023-03-08T05:46:18.718Z,20.30
2023-03-08T05:48:47.363Z,19.60
2023-03-08T05:51:19.322Z,15.80
2023-03-08T05:53:47.925Z,18.60
2023-03-08T05:56:19.702Z,17.60
2023-03-08T05:58:54.098Z,22.00
2023-03-08T06:01:26.173Z,21.70
2023-03-08T06:03:58.116Z,17.40
2023-03-08T06:06:28.327Z,19.30
2023-03-08T06:08:59.719Z,17.20
2023-03-08T06:11:28.439Z,18.60
2023-03-08T06:13:57.050Z,17.50
2023-03-08T06:16:26.116Z,22.20
2023-03-08T06:18:54.616Z,24.30
2023-03-08T06:21:23.217Z,27.30
2023-03-08T06:23:57.829Z,27.10
2023-03-08T06:26:26.211Z,26.50
2023-03-08T06:28:54.612Z,26.90
2023-03-08T06:31:23.457Z,24.10
2023-03-08T06:33:53.266Z,23.40
2023-03-08T06:36:24.258Z,23.90
2023-03-08T06:38:52.702Z,20.90
2023-03-08T06:41:22.033Z,21.20
2023-03-08T06:43:53.292Z,22.50
2023-03-08T06:46:21.930Z,27.40
2023-03-08T06:48:50.705Z,30.30
2023-03-08T06:51:19.681Z,25.10
2023-03-08T06:53:48.340Z,25.30
2023-03-08T06:56:20.087Z,23.50
2023-03-08T06:58:48.682Z,21.60
2023-03-08T07:01:17.258Z,19.60
2023-03-08T07:03:46.701Z,14.70
2023-03-08T07:06:15.413Z,11.90
2023-03-08T07:08:43.735Z,10.00
2023-03-08T07:11:12.096Z,9.40
2023-03-08T07:13:40.577Z,10.20
2023-03-08T07:16:11.119Z,11.00
2023-03-08T07:18:39.979Z,11.90
2023-03-08T07:21:10.488Z,14.60
2023-03-08T07:23:38.897Z,15.70
2023-03-08T07:26:08.296Z,16.40
2023-03-08T07:28:36.851Z,11.60
2023-03-08T07:31:05.383Z,12.40
2023-03-08T07:33:35.103Z,12.60
2023-03-08T07:36:03.837Z,14.70
2023-03-08T07:38:32.136Z,12.70
2023-03-08T07:41:00.583Z,11.90
2023-03-08T07:43:28.950Z,11.10
2023-03-08T07:46:03.064Z,11.30
2023-03-08T07:48:32.328Z,11.50
2023-03-08T07:51:07.473Z,19.70
2023-03-08T07:53:38.842Z,20.30
2023-03-08T07:56:07.676Z,18.80
2023-03-08T07:58:36.086Z,18.60
2023-03-08T08:01:13.049Z,18.20
2023-03-08T08:03:43.698Z,18.90
2023-03-08T08:06:12.092Z,18.30
2023-03-08T08:08:40.882Z,14.40
2023-03-08T08:11:14.511Z,12.90
2023-03-08T08:13:43.055Z,12.30
2023-03-08T08:16:11.454Z,12.10
2023-03-08T08:18:40.113Z,12.90
2023-03-08T08:21:11.546Z,11.70
2023-03-08T08:23:41.259Z,9.80
2023-03-08T08:26:15.389Z,11.20
2023-03-08T08:28:45.272Z,11.70
2023-03-08T08:31:17.117Z,11.80
2023-03-08T08:33:45.527Z,10.00
2023-03-08T08:36:16.754Z,11.30
2023-03-08T08:38:46.682Z,8.00
2023-03-08T08:41:17.504Z,6.80
2023-03-08T08:43:47.218Z,8.30
2023-03-08T08:46:16.654Z,10.30
2023-03-08T08:48:45.083Z,10.60
2023-03-08T08:51:14.571Z,6.90
2023-03-08T08:53:44.441Z,4.40
2023-03-08T08:56:26.186Z,3.70
2023-03-08T08:59:02.421Z,4.00
2023-03-08T09:01:32.825Z,3.00
2023-03-08T09:04:01.245Z,3.40
2023-03-08T09:06:31.180Z,2.80
2023-03-08T09:08:59.584Z,2.70
2023-03-08T09:11:29.068Z,3.20
2023-03-08T09:13:57.668Z,2.70
2023-03-08T09:16:28.871Z,2.80
2023-03-08T09:18:58.494Z,2.80
2023-03-08T09:21:28.307Z,2.80
2023-03-08T09:24:00.009Z,2.00
2023-03-08T09:26:32.936Z,3.00
2023-03-08T09:29:05.190Z,2.90
2023-03-08T09:31:36.497Z,3.50
2023-03-08T09:34:09.313Z,3.00
2023-03-08T09:39:10.583Z,3.10
2023-03-08T09:41:45.008Z,3.20
2023-03-08T09:44:32.780Z,3.50
2023-03-08T09:47:09.246Z,2.60
2023-03-08T09:49:42.257Z,2.80
2023-03-08T09:55:03.433Z,2.20
2023-03-08T09:57:41.779Z,2.60
2023-03-08T10:00:20.334Z,1.90
2023-03-08T10:03:13.045Z,1.90
2023-03-08T10:05:54.448Z,2.10
2023-03-08T10:08:27.105Z,2.00
2023-03-08T10:11:12.453Z,2.00
2023-03-08T10:13:49.824Z,2.20
2023-03-08T10:16:28.213Z,1.90
2023-03-08T10:19:17.823Z,2.00
2023-03-08T10:21:48.248Z,1.60
2023-03-08T10:24:41.471Z,1.30
2023-03-08T10:27:21.384Z,1.90
2023-03-08T10:29:55.719Z,1.60
2023-03-08T10:32:25.764Z,2.00
2023-03-08T10:35:01.922Z,1.90
2023-03-08T10:37:32.684Z,2.20
2023-03-08T10:40:06.232Z,1.30
2023-03-08T10:42:36.165Z,1.80
2023-03-08T10:45:24.264Z,1.50
2023-03-08T10:48:04.240Z,1.80
2023-03-08T10:50:37.671Z,2.70
2023-03-08T10:53:20.143Z,1.80
2023-03-08T10:55:51.323Z,2.30
2023-03-08T10:58:33.704Z,2.10
2023-03-08T11:01:32.735Z,1.90
2023-03-08T11:04:16.954Z,1.40
2023-03-08T11:06:50.372Z,2.10
2023-03-08T11:09:33.546Z,2.30
2023-03-08T11:12:02.054Z,1.90
2023-03-08T11:14:30.484Z,2.90
2023-03-08T11:17:17.088Z,2.30
2023-03-08T11:20:00.681Z,2.10
2023-03-08T11:23:04.325Z,1.80
2023-03-08T11:25:46.522Z,1.60
2023-03-08T11:31:16.910Z,1.40
2023-03-08T11:33:54.602Z,1.70
2023-03-08T11:36:44.906Z,1.70
2023-03-08T11:39:19.987Z,1.90
2023-03-08T11:42:02.689Z,1.20
2023-03-08T11:44:54.512Z,1.70
2023-03-08T11:47:58.202Z,1.70
2023-03-08T11:50:34.113Z,1.40
2023-03-08T11:53:28.790Z,1.40
2023-03-08T11:56:09.362Z,1.90
2023-03-08T11:58:40.604Z,1.00
2023-03-08T12:01:23.153Z,1.50
2023-03-08T12:03:58.906Z,1.40
2023-03-08T12:06:33.741Z,1.60
2023-03-08T12:09:13.936Z,1.30
2023-03-08T12:11:49.847Z,1.40
2023-03-08T12:14:26.496Z,1.40
2023-03-08T12:17:07.688Z,1.30
2023-03-08T12:19:49.496Z,1.50
2023-03-08T12:22:31.351Z,1.40
2023-03-08T12:25:13.215Z,1.60
2023-03-08T12:28:04.965Z,1.30
2023-03-08T12:31:26.341Z,1.20
2023-03-08T12:33:57.994Z,1.00
2023-03-08T12:36:44.172Z,1.20
2023-03-08T12:39:35.882Z,1.40
2023-03-08T12:42:10.346Z,1.80
2023-03-08T12:44:39.772Z,1.90
2023-03-08T12:47:14.177Z,1.30
2023-03-08T12:49:46.348Z,1.10
2023-03-08T12:52:18.546Z,0.80
2023-03-08T12:55:04.207Z,1.10
2023-03-08T12:58:02.807Z,1.20
2023-03-08T13:00:34.240Z,1.40
2023-03-08T13:03:06.972Z,1.00
2023-03-08T13:05:37.707Z,1.30
2023-03-08T13:08:16.077Z,1.10
2023-03-08T13:10:50.346Z,2.00
2023-03-08T13:13:38.103Z,1.50
2023-03-08T13:16:26.479Z,1.10
2023-03-08T13:19:28.622Z,1.10
2023-03-08T13:22:09.165Z,0.70
2023-03-08T13:24:46.714Z,1.10
2023-03-08T13:27:56.201Z,1.10
2023-03-08T13:30:47.336Z,1.00
2023-03-08T13:33:27.743Z,0.90
2023-03-08T13:36:05.923Z,1.20
2023-03-08T13:38:37.316Z,1.80
2023-03-08T13:41:05.697Z,1.10
2023-03-08T13:43:35.727Z,1.60
2023-03-08T13:46:11.045Z,1.70
2023-03-08T13:48:44.478Z,1.90
2023-03-08T13:51:19.230Z,1.50
2023-03-08T13:53:47.749Z,1.20
2023-03-08T13:56:26.274Z,1.60
2023-03-08T13:58:58.007Z,1.80
2023-03-08T14:01:27.570Z,1.60
2023-03-08T14:03:58.517Z,2.70
2023-03-08T14:06:38.273Z,1.70
2023-03-08T14:09:07.499Z,1.60
2023-03-08T14:11:38.948Z,1.20
2023-03-08T14:14:16.269Z,1.60
2023-03-08T14:16:44.841Z,2.10
2023-03-08T14:19:35.494Z,1.40
2023-03-08T14:22:12.808Z,1.70
2023-03-08T14:24:43.955Z,2.00
2023-03-08T14:27:15.339Z,1.80
2023-03-08T14:29:45.833Z,2.20
2023-03-08T14:32:14.958Z,2.30
2023-03-08T14:34:45.684Z,1.90
2023-03-08T14:37:29.006Z,2.40
2023-03-08T14:42:48.089Z,2.40
2023-03-08T14:45:26.741Z,2.50
2023-03-08T14:48:00.723Z,2.80
2023-03-08T14:50:34.344Z,2.00
2023-03-08T14:53:04.238Z,2.20
2023-03-08T14:55:35.585Z,2.30
2023-03-08T14:58:11.859Z,2.00
2023-03-08T15:00:58.281Z,2.30
2023-03-08T15:03:27.238Z,2.50
2023-03-08T15:05:56.364Z,3.40
2023-03-08T15:08:25.898Z,5.10
2023-03-08T15:10:54.832Z,3.30
2023-03-08T15:13:24.374Z,2.70
2023-03-08T15:15:53.014Z,2.20
2023-03-08T15:18:21.537Z,2.20
2023-03-08T15:20:52.289Z,2.20
2023-03-08T15:23:25.488Z,2.70
2023-03-08T15:25:54.575Z,3.40
2023-03-08T15:28:23.772Z,3.30
2023-03-08T15:30:54.860Z,3.70
2023-03-08T15:33:23.538Z,3.30
2023-03-08T15:35:52.301Z,3.10
2023-03-08T15:38:21.632Z,2.80
2023-03-08T15:40:50.089Z,2.60
2023-03-08T15:43:18.529Z,2.60
2023-03-08T15:45:47.955Z,3.00
2023-03-08T15:48:18.724Z,2.80
2023-03-08T15:50:47.258Z,2.70
2023-03-08T15:53:26.173Z,2.90
2023-03-08T15:56:02.882Z,3.20
2023-03-08T15:58:31.246Z,3.70
2023-03-08T16:01:00.306Z,3.40
2023-03-08T16:03:31.252Z,3.10
2023-03-08T16:06:00.215Z,3.80
2023-03-08T16:08:29.646Z,3.80
2023-03-08T16:11:04.033Z,3.80
2023-03-08T16:13:32.679Z,3.90
2023-03-08T16:16:03.863Z,3.90
2023-03-08T16:18:36.192Z,4.20
2023-03-08T16:21:09.860Z,3.40
2023-03-08T16:23:39.665Z,3.50
2023-03-08T16:26:16.750Z,4.90
2023-03-08T16:28:47.583Z,3.60
2023-03-08T16:31:21.110Z,4.00
2023-03-08T16:33:49.606Z,5.30
2023-03-08T16:36:19.274Z,7.70
2023-03-08T16:38:48.277Z,5.80
2023-03-08T16:41:16.634Z,4.20
2023-03-08T16:43:47.633Z,3.70
2023-03-08T16:46:18.981Z,4.10
2023-03-08T16:48:49.975Z,4.00
2023-03-08T16:51:20.085Z,4.20
2023-03-08T16:53:49.505Z,4.40
2023-03-08T16:56:27.008Z,5.00
2023-03-08T16:58:57.739Z,5.00
2023-03-08T17:01:27.732Z,4.30
2023-03-08T17:03:57.323Z,4.00
2023-03-08T17:06:29.095Z,5.70
2023-03-08T17:08:58.729Z,4.90
2023-03-08T17:11:29.518Z,6.40
2023-03-08T17:14:07.826Z,9.50
2023-03-08T17:16:37.701Z,5.60
2023-03-08T17:19:08.350Z,7.10
2023-03-08T17:21:38.578Z,8.50
2023-03-08T17:24:10.924Z,5.70
2023-03-08T17:26:47.619Z,6.30
2023-03-08T17:29:16.645Z,6.20
2023-03-08T17:31:45.370Z,6.10
2023-03-08T17:34:14.717Z,6.50
2023-03-08T17:36:43.666Z,5.90
2023-03-08T17:39:12.162Z,5.00
2023-03-08T17:41:40.647Z,5.50
2023-03-08T17:44:09.217Z,5.80
2023-03-08T17:46:38.171Z,6.50
2023-03-08T17:49:07.036Z,9.60
2023-03-08T17:51:35.564Z,9.30
2023-03-08T17:54:04.428Z,9.00
2023-03-08T17:56:33.009Z,8.00
2023-03-08T17:59:02.147Z,10.60
2023-03-08T18:01:31.984Z,6.00
2023-03-08T18:04:01.291Z,7.20
2023-03-08T18:06:34.274Z,7.10
2023-03-08T18:09:06.576Z,6.20
2023-03-08T18:11:38.014Z,5.10
2023-03-08T18:14:08.138Z,5.50
2023-03-08T18:16:36.639Z,6.80
2023-03-08T18:19:06.016Z,7.70
2023-03-08T18:21:35.602Z,4.90
2023-03-08T18:24:05.398Z,7.70
2023-03-08T18:26:33.734Z,18.60
2023-03-08T18:29:02.769Z,6.40
2023-03-08T18:31:32.376Z,5.50
2023-03-08T18:34:00.893Z,5.40
2023-03-08T18:36:29.263Z,5.20
2023-03-08T18:38:58.353Z,5.60
2023-03-08T18:41:30.500Z,4.70
2023-03-08T18:44:00.163Z,4.90
2023-03-08T18:46:31.256Z,16.00
2023-03-08T18:49:13.021Z,5.40
2023-03-08T18:51:42.920Z,5.30
2023-03-08T18:54:15.003Z,4.80
2023-03-08T18:56:44.020Z,5.30
2023-03-08T18:59:13.968Z,4.40
2023-03-08T19:01:44.733Z,3.80
2023-03-08T19:04:13.217Z,7.40
2023-03-08T19:06:42.426Z,4.60
2023-03-08T19:09:13.792Z,5.00
2023-03-08T19:12:52.522Z,11.40
2023-03-08T19:33:39.176Z,7.00
2023-03-08T19:36:56.072Z,5.40
2023-03-08T19:40:15.560Z,5.70
2023-03-08T19:43:36.389Z,6.60
2023-03-08T19:49:57.321Z,5.80
2023-03-08T19:53:43.493Z,5.00
2023-03-08T19:57:40.164Z,8.40
2023-03-08T20:11:18.227Z,9.20
2023-03-08T20:14:14.153Z,13.40
2023-03-08T20:16:46.592Z,12.60
2023-03-08T20:19:18.901Z,12.80
2023-03-08T20:21:47.970Z,10.80
2023-03-08T20:24:21.622Z,11.60
2023-03-08T20:26:55.432Z,13.70
2023-03-08T20:29:32.179Z,12.80
2023-03-08T20:32:27.359Z,12.90
2023-03-08T20:35:03.320Z,11.10
2023-03-08T20:37:36.712Z,12.30
2023-03-08T20:40:28.620Z,12.20
2023-03-08T20:42:58.402Z,12.60
2023-03-08T20:45:30.414Z,12.50
2023-03-08T20:48:03.400Z,15.20
2023-03-08T20:50:32.295Z,15.70
2023-03-08T20:53:05.068Z,17.40
2023-03-08T20:55:54.656Z,14.10
2023-03-08T20:58:33.952Z,17.60
2023-03-08T21:01:19.514Z,15.20
2023-03-08T21:04:05.636Z,15.30
2023-03-08T21:06:34.511Z,13.40
2023-03-08T21:09:07.555Z,15.60
2023-03-08T21:11:40.067Z,16.70
2023-03-08T21:14:09.650Z,18.70
2023-03-08T21:16:38.218Z,17.90
2023-03-08T21:19:09.695Z,18.50
2023-03-08T21:21:43.409Z,13.40
2023-03-08T21:24:17.319Z,12.40
2023-03-08T21:26:52.562Z,14.00
2023-03-08T21:29:27.142Z,13.40
2023-03-08T21:31:54.705Z,12.20
2023-03-08T21:34:25.975Z,12.10
2023-03-08T21:36:54.641Z,11.30
2023-03-08T21:39:22.501Z,10.90
2023-03-08T21:41:50.156Z,11.50
2023-03-08T21:44:21.038Z,11.10
2023-03-08T21:46:55.998Z,11.40
2023-03-08T21:49:29.316Z,11.20
2023-03-08T21:51:58.194Z,11.70
2023-03-08T21:54:29.572Z,10.70
2023-03-08T21:57:01.448Z,10.40
2023-03-08T21:59:31.921Z,10.90
2023-03-08T22:02:04.882Z,11.50
2023-03-08T22:04:32.489Z,10.40
2023-03-08T22:07:02.856Z,12.40
2023-03-08T22:09:34.819Z,12.80
2023-03-08T22:12:04.533Z,14.90
2023-03-08T22:14:33.308Z,10.80
2023-03-08T22:17:06.526Z,9.80
2023-03-08T22:19:35.195Z,8.60
2023-03-08T22:22:03.212Z,8.80
2023-03-08T22:24:32.400Z,8.00
2023-03-08T22:27:00.907Z,11.30
2023-03-08T22:29:33.275Z,9.80
2023-03-08T22:32:05.545Z,9.90
2023-03-08T22:34:37.103Z,8.00
2023-03-08T22:37:05.626Z,10.00
2023-03-08T22:39:37.713Z,8.40
2023-03-08T22:42:04.983Z,8.10
2023-03-08T22:44:34.995Z,10.10
2023-03-08T22:47:02.261Z,10.60
2023-03-08T22:49:30.242Z,17.90
2023-03-08T22:51:58.812Z,10.90
2023-03-08T22:54:26.029Z,7.90
2023-03-08T22:56:53.276Z,7.20
2023-03-08T22:59:20.545Z,7.10
2023-03-08T23:01:47.794Z,6.40
2023-03-08T23:04:15.310Z,5.30
2023-03-08T23:06:42.468Z,6.20
2023-03-08T23:09:12.223Z,5.50
2023-03-08T23:11:43.035Z,6.20
2023-03-08T23:14:14.394Z,10.00
2023-03-08T23:16:45.669Z,10.50
2023-03-08T23:19:17.405Z,10.80
2023-03-08T23:21:44.611Z,11.80
2023-03-08T23:24:15.191Z,8.90
2023-03-08T23:26:43.442Z,10.60
2023-03-08T23:29:10.590Z,8.10
2023-03-08T23:31:38.368Z,7.10
2023-03-08T23:34:05.688Z,5.30
2023-03-08T23:36:33.591Z,4.30
2023-03-08T23:39:02.408Z,5.00
2023-03-08T23:41:31.099Z,5.70
2023-03-08T23:44:00.039Z,4.90
2023-03-08T23:46:28.679Z,4.60
2023-03-08T23:48:57.739Z,4.00
2023-03-08T23:51:27.867Z,8.90
2023-03-08T23:53:58.041Z,6.10
2023-03-08T23:56:37.019Z,7.00
2023-03-08T23:59:11.283Z,6.30
